createdAt,value
2019-05-14T00:00:13.535Z,6.09
2019-05-14T00:02:46.939Z,6.06
2019-05-14T00:05:15.887Z,5.92
2019-05-14T00:07:44.673Z,5.98
2019-05-14T00:10:11.912Z,5.84
2019-05-14T00:12:44.947Z,5.71
2019-05-14T00:15:12.024Z,5.58
2019-05-14T00:17:38.271Z,5.52
2019-05-14T00:20:13.175Z,5.56
2019-05-14T00:22:41.733Z,5.70
2019-05-14T00:25:08.218Z,5.83
2019-05-14T00:27:36.104Z,5.81
2019-05-14T00:30:04.523Z,5.73
2019-05-14T00:32:31.778Z,5.64
2019-05-14T00:34:58.101Z,5.38
2019-05-14T00:37:24.398Z,5.23
2019-05-14T00:39:52.131Z,5.20
2019-05-14T00:42:18.695Z,5.21
2019-05-14T00:44:54.510Z,5.19
2019-05-14T00:47:14.085Z,5.19
2019-05-14T00:49:42.525Z,5.26
2019-05-14T00:52:11.511Z,5.22
2019-05-14T00:54:37.502Z,5.16
2019-05-14T00:57:03.963Z,5.28
2019-05-14T00:59:32.230Z,5.12
2019-05-14T01:01:58.746Z,5.27
2019-05-14T01:04:24.971Z,5.20
2019-05-14T01:06:51.317Z,5.09
2019-05-14T01:09:17.439Z,4.91
2019-05-14T01:11:43.701Z,4.77
2019-05-14T01:14:12.020Z,4.69
2019-05-14T01:16:38.301Z,4.92
2019-05-14T01:19:04.699Z,5.06
2019-05-14T01:21:31.341Z,5.09
2019-05-14T01:23:57.654Z,5.02
2019-05-14T01:26:23.999Z,5.13
2019-05-14T01:28:51.339Z,5.15
2019-05-14T01:31:17.958Z,5.03
2019-05-14T01:33:44.351Z,4.94
2019-05-14T01:36:12.372Z,4.96
2019-05-14T01:38:38.981Z,4.79
2019-05-14T01:41:05.519Z,4.72
2019-05-14T01:43:32.308Z,4.62
2019-05-14T01:46:01.616Z,4.80
2019-05-14T01:48:31.139Z,4.68
2019-05-14T01:50:57.377Z,4.20
2019-05-14T01:53:23.929Z,4.10
2019-05-14T01:55:52.008Z,4.29
2019-05-14T01:58:18.742Z,4.24
2019-05-14T02:00:45.408Z,4.26
2019-05-14T02:03:12.194Z,4.24
2019-05-14T02:05:41.720Z,4.20
2019-05-14T02:08:08.352Z,4.07
2019-05-14T02:10:34.817Z,4.11
2019-05-14T02:13:01.989Z,4.15
2019-05-14T02:15:39.587Z,4.03
2019-05-14T02:18:02.388Z,4.08
2019-05-14T02:20:32.171Z,4.19
2019-05-14T02:23:01.324Z,4.09
2019-05-14T02:25:27.405Z,4.20
2019-05-14T02:27:53.556Z,4.30
2019-05-14T02:30:28.522Z,4.43
2019-05-14T02:32:49.822Z,4.52
2019-05-14T02:35:16.192Z,4.55
2019-05-14T02:37:43.470Z,4.53
2019-05-14T02:40:10.346Z,4.57
2019-05-14T02:42:39.646Z,4.61
2019-05-14T02:45:08.953Z,4.49
2019-05-14T02:47:39.325Z,4.34
2019-05-14T02:50:05.001Z,4.34
2019-05-14T02:52:40.239Z,4.40
2019-05-14T02:55:09.417Z,4.39
2019-05-14T02:57:35.873Z,4.35
2019-05-14T03:00:10.083Z,4.20
2019-05-14T03:02:40.047Z,4.20
2019-05-14T03:05:05.270Z,4.40
2019-05-14T03:07:38.988Z,4.33
2019-05-14T03:10:04.693Z,4.46
2019-05-14T03:12:31.849Z,4.41
2019-05-14T03:14:59.520Z,4.55
2019-05-14T03:17:25.908Z,4.43
2019-05-14T03:19:53.427Z,4.17
2019-05-14T03:22:26.455Z,4.10
2019-05-14T03:24:50.196Z,4.26
2019-05-14T03:27:19.349Z,4.36
2019-05-14T03:29:51.710Z,4.30
2019-05-14T03:32:22.438Z,4.22
2019-05-14T03:34:52.122Z,4.23
2019-05-14T03:37:22.655Z,4.10
2019-05-14T03:39:45.262Z,4.12
2019-05-14T03:42:13.387Z,3.85
2019-05-14T03:44:40.280Z,3.80
2019-05-14T03:47:10.166Z,3.58
2019-05-14T03:49:35.270Z,3.60
2019-05-14T03:52:01.859Z,3.62
2019-05-14T03:54:29.824Z,3.60
2019-05-14T03:57:00.120Z,3.48
2019-05-14T03:59:25.168Z,3.58
2019-05-14T04:01:51.750Z,3.76
2019-05-14T04:04:19.442Z,4.01
2019-05-14T04:06:49.712Z,4.08
2019-05-14T04:09:20.125Z,4.17
2019-05-14T04:11:50.145Z,4.04
2019-05-14T04:14:19.859Z,3.73
2019-05-14T04:17:01.309Z,3.68
2019-05-14T04:19:21.574Z,3.50
2019-05-14T04:21:49.424Z,3.38
2019-05-14T04:24:20.144Z,3.31
2019-05-14T04:26:58.456Z,3.49
2019-05-14T04:29:24.492Z,3.61
2019-05-14T04:31:54.068Z,3.66
2019-05-14T04:34:24.171Z,3.80
2019-05-14T04:36:59.091Z,3.99
2019-05-14T04:39:25.323Z,4.24
2019-05-14T04:41:51.614Z,4.27
2019-05-14T04:44:19.853Z,4.36
2019-05-14T04:46:49.337Z,4.42
2019-05-14T04:49:19.716Z,4.62
2019-05-14T04:51:45.188Z,4.67
2019-05-14T04:54:11.554Z,4.86
2019-05-14T04:56:40.046Z,4.99
2019-05-14T04:59:10.053Z,5.01
2019-05-14T05:01:40.114Z,5.13
2019-05-14T05:04:05.809Z,5.31
2019-05-14T05:06:33.527Z,5.41
2019-05-14T05:09:00.355Z,5.62
2019-05-14T05:11:29.174Z,5.73
2019-05-14T05:13:55.377Z,5.90
2019-05-14T05:16:21.762Z,6.09
2019-05-14T05:18:49.189Z,6.18
2019-05-14T05:21:15.882Z,6.30
2019-05-14T05:23:41.981Z,6.36
2019-05-14T05:26:09.141Z,6.42
2019-05-14T05:28:35.707Z,6.42
2019-05-14T05:31:03.262Z,6.40
2019-05-14T05:33:29.588Z,6.44
2019-05-14T05:35:55.973Z,6.40
2019-05-14T05:38:22.113Z,6.42
2019-05-14T05:40:48.702Z,6.32
2019-05-14T05:43:15.098Z,6.37
2019-05-14T05:45:41.414Z,6.57
2019-05-14T05:48:08.210Z,6.83
2019-05-14T05:50:34.624Z,7.06
2019-05-14T05:53:00.726Z,7.23
2019-05-14T05:55:28.772Z,7.35
2019-05-14T05:57:55.181Z,7.36
2019-05-14T06:00:33.744Z,7.49
2019-05-14T06:03:00.006Z,7.57
2019-05-14T06:05:26.232Z,7.60
2019-05-14T06:07:52.526Z,7.73
2019-05-14T06:10:18.847Z,7.77
2019-05-14T06:12:45.021Z,8.07
2019-05-14T06:15:14.258Z,8.04
2019-05-14T06:17:39.545Z,8.25
2019-05-14T06:20:08.388Z,8.13
2019-05-14T06:22:34.471Z,8.12
2019-05-14T06:25:00.617Z,8.24
2019-05-14T06:27:28.800Z,8.35
2019-05-14T06:29:55.201Z,8.48
2019-05-14T06:32:21.415Z,8.57
2019-05-14T06:34:48.841Z,8.57
2019-05-14T06:37:15.304Z,8.39
2019-05-14T06:39:41.526Z,8.28
2019-05-14T06:42:08.818Z,8.44
2019-05-14T06:44:35.121Z,8.44
2019-05-14T06:47:01.324Z,8.67
2019-05-14T06:49:28.964Z,8.78
2019-05-14T06:51:55.338Z,8.78
2019-05-14T06:54:21.421Z,8.91
2019-05-14T06:56:48.938Z,9.23
2019-05-14T06:59:15.346Z,9.46
2019-05-14T07:01:41.579Z,9.59
2019-05-14T07:04:08.828Z,9.81
2019-05-14T07:06:35.200Z,9.92
2019-05-14T07:09:01.521Z,9.94
2019-05-14T07:11:29.345Z,9.94
2019-05-14T07:13:58.077Z,10.11
2019-05-14T07:16:24.341Z,10.11
2019-05-14T07:18:53.910Z,10.22
2019-05-14T07:21:18.852Z,10.22
2019-05-14T07:23:45.121Z,10.81
2019-05-14T07:26:11.453Z,10.81
2019-05-14T07:28:42.011Z,10.90
2019-05-14T07:31:06.048Z,11.09
2019-05-14T07:33:32.375Z,11.02
2019-05-14T07:35:59.340Z,11.16
2019-05-14T07:38:28.253Z,11.15
2019-05-14T07:40:54.207Z,11.20
2019-05-14T07:43:20.468Z,11.12
2019-05-14T07:45:48.902Z,11.13
2019-05-14T07:48:14.857Z,11.19
2019-05-14T07:50:41.178Z,11.32
2019-05-14T07:53:09.009Z,11.61
2019-05-14T07:55:38.506Z,11.48
2019-05-14T07:58:04.448Z,11.66
2019-05-14T08:00:30.981Z,11.80
2019-05-14T08:02:58.167Z,11.92
2019-05-14T08:05:24.699Z,11.95
2019-05-14T08:07:50.862Z,12.27
2019-05-14T08:10:18.616Z,12.58
2019-05-14T08:12:44.935Z,12.80
2019-05-14T08:15:18.293Z,13.01
2019-05-14T08:17:40.160Z,12.98
2019-05-14T08:20:08.965Z,12.99
2019-05-14T08:22:35.575Z,13.15
2019-05-14T08:25:03.489Z,13.34
2019-05-14T08:27:31.157Z,13.24
2019-05-14T08:29:58.934Z,13.28
2019-05-14T08:32:25.396Z,13.53
2019-05-14T08:34:51.527Z,13.73
2019-05-14T08:37:19.152Z,13.90
2019-05-14T08:39:48.522Z,13.99
2019-05-14T08:42:14.360Z,14.28
2019-05-14T08:44:40.725Z,14.16
2019-05-14T08:47:09.323Z,14.14
2019-05-14T08:49:42.437Z,14.77
2019-05-14T08:52:03.458Z,13.61
2019-05-14T08:54:29.581Z,13.85
2019-05-14T08:56:58.260Z,14.87
2019-05-14T08:59:23.955Z,14.96
2019-05-14T09:02:01.886Z,14.69
2019-05-14T09:04:22.236Z,15.19
2019-05-14T09:06:48.747Z,14.49
2019-05-14T09:09:14.724Z,13.24
2019-05-14T09:11:45.165Z,13.11
2019-05-14T09:14:10.883Z,13.94
2019-05-14T09:16:46.165Z,14.46
2019-05-14T09:19:05.967Z,14.99
2019-05-14T09:21:32.229Z,15.35
2019-05-14T09:23:58.834Z,15.48
2019-05-14T09:26:25.166Z,15.22
2019-05-14T09:28:51.381Z,14.62
2019-05-14T09:31:19.597Z,14.04
2019-05-14T09:33:49.157Z,13.86
2019-05-14T09:36:19.409Z,13.52
2019-05-14T09:38:42.889Z,13.14
2019-05-14T09:41:14.915Z,13.22
2019-05-14T09:43:39.316Z,13.48
2019-05-14T09:46:09.006Z,14.47
2019-05-14T09:48:35.282Z,15.27
2019-05-14T09:51:02.488Z,14.40
2019-05-14T09:53:28.988Z,14.76
2019-05-14T09:55:55.350Z,14.89
2019-05-14T09:58:21.659Z,15.12
2019-05-14T10:00:48.645Z,15.27
2019-05-14T10:03:15.070Z,14.26
2019-05-14T10:05:41.518Z,13.82
2019-05-14T10:08:08.950Z,13.98
2019-05-14T10:10:35.524Z,14.57
2019-05-14T10:13:02.050Z,15.11
2019-05-14T10:15:28.801Z,15.29
2019-05-14T10:17:55.321Z,14.73
2019-05-14T10:20:36.371Z,14.82
2019-05-14T10:22:50.709Z,15.52
2019-05-14T10:25:18.150Z,15.75
2019-05-14T10:27:44.549Z,15.76
2019-05-14T10:30:11.243Z,15.87
2019-05-14T10:32:41.357Z,15.56
2019-05-14T10:35:08.396Z,15.03
2019-05-14T10:37:34.490Z,14.46
2019-05-14T10:40:00.940Z,14.19
2019-05-14T10:42:29.351Z,14.36
2019-05-14T10:44:55.321Z,14.69
2019-05-14T10:47:21.684Z,15.23
2019-05-14T10:49:47.898Z,15.50
2019-05-14T10:52:14.260Z,15.70
2019-05-14T10:54:55.028Z,15.42
2019-05-14T10:57:09.711Z,15.72
2019-05-14T10:59:37.356Z,15.78
2019-05-14T11:02:03.791Z,16.39
2019-05-14T11:04:30.417Z,16.35
2019-05-14T11:06:56.752Z,15.70
2019-05-14T11:09:23.019Z,16.35
2019-05-14T11:11:49.551Z,16.36
2019-05-14T11:14:19.055Z,16.13
2019-05-14T11:16:44.017Z,15.66
2019-05-14T11:19:10.274Z,16.36
2019-05-14T11:21:38.987Z,16.11
2019-05-14T11:24:05.065Z,16.24
2019-05-14T11:26:31.956Z,16.02
2019-05-14T11:28:58.663Z,15.34
2019-05-14T11:31:25.095Z,15.74
2019-05-14T11:33:51.349Z,16.56
2019-05-14T11:36:18.776Z,16.57
2019-05-14T11:38:45.329Z,16.77
2019-05-14T11:41:11.534Z,16.78
2019-05-14T11:43:39.785Z,16.44
2019-05-14T11:46:08.419Z,16.41
2019-05-14T11:48:34.183Z,16.28
2019-05-14T11:51:00.621Z,17.00
2019-05-14T11:53:26.921Z,16.57
2019-05-14T11:55:54.420Z,16.07
2019-05-14T11:58:21.540Z,16.31
2019-05-14T12:00:47.988Z,16.80
2019-05-14T12:03:14.202Z,17.52
2019-05-14T12:05:40.533Z,17.47
2019-05-14T12:08:08.645Z,17.89
2019-05-14T12:10:34.974Z,18.10
2019-05-14T12:13:01.237Z,17.04
2019-05-14T12:15:27.490Z,16.24
2019-05-14T12:17:53.804Z,15.92
2019-05-14T12:20:20.159Z,16.66
2019-05-14T12:22:48.695Z,16.62
2019-05-14T12:25:14.756Z,15.93
2019-05-14T12:27:40.979Z,15.78
2019-05-14T12:30:09.659Z,15.45
2019-05-14T12:32:39.189Z,15.97
2019-05-14T12:35:04.892Z,16.89
2019-05-14T12:37:31.142Z,17.67
2019-05-14T12:39:59.045Z,18.51
2019-05-14T12:42:25.677Z,18.12
2019-05-14T12:44:51.903Z,16.79
2019-05-14T12:47:18.928Z,16.90
2019-05-14T12:49:47.879Z,16.82
2019-05-14T12:52:22.201Z,16.72
2019-05-14T12:54:42.932Z,16.02
2019-05-14T12:57:09.210Z,15.99
2019-05-14T12:59:35.446Z,15.79
2019-05-14T13:02:01.796Z,16.24
2019-05-14T13:04:28.625Z,16.07
2019-05-14T13:06:55.091Z,16.13
2019-05-14T13:09:24.224Z,15.86
2019-05-14T13:11:50.345Z,15.84
2019-05-14T13:14:16.577Z,16.56
2019-05-14T13:16:42.895Z,17.48
2019-05-14T13:19:10.379Z,18.17
2019-05-14T13:21:38.848Z,18.54
2019-05-14T13:24:04.627Z,17.94
2019-05-14T13:26:30.959Z,18.22
2019-05-14T13:28:58.860Z,16.78
2019-05-14T13:31:25.283Z,15.95
2019-05-14T13:33:51.473Z,15.96
2019-05-14T13:36:20.566Z,16.80
2019-05-14T13:38:49.049Z,17.26
2019-05-14T13:41:14.399Z,17.37
2019-05-14T13:43:40.639Z,17.30
2019-05-14T13:46:10.381Z,17.47
2019-05-14T13:48:39.590Z,17.22
2019-05-14T13:51:04.996Z,16.47
2019-05-14T13:53:31.304Z,16.17
2019-05-14T13:55:58.057Z,15.94
2019-05-14T13:58:24.243Z,15.74
2019-05-14T14:00:52.056Z,15.77
2019-05-14T14:03:19.951Z,16.10
2019-05-14T14:05:49.533Z,16.11
2019-05-14T14:08:19.122Z,16.23
2019-05-14T14:10:46.596Z,15.98
2019-05-14T14:13:13.043Z,15.66
2019-05-14T14:15:39.403Z,15.76
2019-05-14T14:18:05.623Z,15.81
2019-05-14T14:20:31.875Z,15.81
2019-05-14T14:22:58.719Z,15.94
2019-05-14T14:25:26.153Z,16.16
2019-05-14T14:27:52.379Z,16.06
2019-05-14T14:30:19.433Z,15.80
2019-05-14T14:32:49.263Z,15.85
2019-05-14T14:35:14.552Z,15.95
2019-05-14T14:37:40.972Z,16.01
2019-05-14T14:40:10.091Z,15.96
2019-05-14T14:42:39.573Z,15.84
2019-05-14T14:45:05.691Z,15.95
2019-05-14T14:47:31.926Z,15.80
2019-05-14T14:50:00.408Z,15.82
2019-05-14T14:52:29.163Z,15.77
2019-05-14T14:54:54.420Z,15.72
2019-05-14T14:57:20.688Z,15.75
2019-05-14T14:59:48.515Z,15.83
2019-05-14T15:02:15.242Z,15.89
2019-05-14T15:04:41.608Z,15.92
2019-05-14T15:07:09.732Z,15.84
2019-05-14T15:09:36.110Z,15.63
2019-05-14T15:12:02.771Z,15.79
2019-05-14T15:14:29.787Z,15.76
2019-05-14T15:16:56.349Z,15.70
2019-05-14T15:19:22.721Z,15.50
2019-05-14T15:21:50.051Z,15.54
2019-05-14T15:24:19.340Z,15.60
2019-05-14T15:26:44.641Z,15.56
2019-05-14T15:29:10.886Z,15.41
2019-05-14T15:31:38.581Z,15.42
2019-05-14T15:34:08.735Z,15.57
2019-05-14T15:36:34.208Z,15.48
2019-05-14T15:39:00.456Z,15.27
2019-05-14T15:41:29.466Z,14.93
2019-05-14T15:43:54.903Z,14.85
2019-05-14T15:46:22.520Z,14.85
2019-05-14T15:48:51.640Z,14.95
2019-05-14T15:51:19.502Z,15.19
2019-05-14T15:54:04.960Z,15.29
2019-05-14T15:56:14.518Z,15.19
2019-05-14T15:58:41.113Z,15.11
2019-05-14T16:01:10.135Z,15.22
2019-05-14T16:03:35.565Z,15.30
2019-05-14T16:06:01.805Z,15.27
2019-05-14T16:08:29.552Z,15.09
2019-05-14T16:11:00.073Z,14.99
2019-05-14T16:13:24.462Z,14.95
2019-05-14T16:15:50.945Z,15.03
2019-05-14T16:18:21.648Z,15.05
2019-05-14T16:20:45.578Z,15.11
2019-05-14T16:23:12.067Z,15.21
2019-05-14T16:25:38.305Z,15.30
2019-05-14T16:28:04.634Z,15.29
2019-05-14T16:30:30.944Z,15.13
2019-05-14T16:32:59.643Z,15.22
2019-05-14T16:35:25.434Z,15.24
2019-05-14T16:37:51.561Z,15.29
2019-05-14T16:40:19.267Z,15.32
2019-05-14T16:42:48.321Z,15.27
2019-05-14T16:45:14.315Z,15.14
2019-05-14T16:47:40.571Z,15.06
2019-05-14T16:50:08.901Z,15.06
2019-05-14T16:52:35.326Z,14.94
2019-05-14T16:55:20.241Z,14.90
2019-05-14T16:57:32.683Z,14.95
2019-05-14T16:59:59.122Z,15.04
2019-05-14T17:02:25.302Z,14.97
2019-05-14T17:04:51.594Z,15.01
2019-05-14T17:07:18.273Z,15.03
2019-05-14T17:09:44.925Z,15.07
2019-05-14T17:12:11.021Z,14.95
2019-05-14T17:14:38.534Z,15.03
2019-05-14T17:17:08.883Z,15.01
2019-05-14T17:19:34.268Z,15.16
2019-05-14T17:22:00.441Z,15.15
2019-05-14T17:24:29.179Z,15.07
2019-05-14T17:26:54.938Z,14.86
2019-05-14T17:29:21.506Z,14.89
2019-05-14T17:31:49.321Z,14.79
2019-05-14T17:34:18.390Z,14.76
2019-05-14T17:36:44.841Z,14.65
2019-05-14T17:39:11.187Z,14.58
2019-05-14T17:41:41.684Z,14.50
2019-05-14T17:44:06.144Z,14.51
2019-05-14T17:46:33.545Z,14.45
2019-05-14T17:49:00.556Z,14.48
2019-05-14T17:51:28.528Z,14.50
2019-05-14T17:53:54.874Z,14.50
2019-05-14T17:56:22.940Z,14.59
2019-05-14T17:58:52.449Z,14.51
2019-05-14T18:01:19.085Z,14.46
2019-05-14T18:03:45.691Z,14.44
2019-05-14T18:06:11.954Z,14.41
2019-05-14T18:08:38.443Z,14.37
2019-05-14T18:11:04.803Z,14.31
2019-05-14T18:13:31.295Z,14.32
2019-05-14T18:15:58.047Z,14.26
2019-05-14T18:18:24.815Z,14.21
2019-05-14T18:20:51.166Z,14.27
2019-05-14T18:23:18.526Z,14.23
2019-05-14T18:26:02.750Z,14.24
2019-05-14T18:28:14.089Z,14.14
2019-05-14T18:30:40.366Z,14.16
2019-05-14T18:33:08.004Z,14.15
2019-05-14T18:35:42.259Z,14.09
2019-05-14T18:38:03.875Z,14.10
2019-05-14T18:40:30.107Z,14.03
2019-05-14T18:42:58.678Z,14.06
2019-05-14T18:45:24.867Z,14.05
2019-05-14T18:47:51.320Z,14.05
2019-05-14T18:50:19.595Z,13.97
2019-05-14T18:52:48.370Z,13.93
2019-05-14T18:55:14.375Z,13.91
2019-05-14T18:57:40.656Z,13.80
2019-05-14T19:00:08.356Z,13.79
2019-05-14T19:02:35.117Z,13.77
2019-05-14T19:05:01.535Z,13.62
2019-05-14T19:07:28.779Z,13.56
2019-05-14T19:09:55.159Z,13.58
2019-05-14T19:12:21.429Z,13.51
2019-05-14T19:14:49.274Z,13.50
2019-05-14T19:17:18.528Z,13.48
2019-05-14T19:19:44.251Z,13.43
2019-05-14T19:22:10.627Z,13.29
2019-05-14T19:24:38.251Z,13.24
2019-05-14T19:27:04.988Z,13.09
2019-05-14T19:29:31.251Z,13.01
2019-05-14T19:31:57.593Z,12.93
2019-05-14T19:34:24.020Z,12.98
2019-05-14T19:36:50.363Z,12.86
2019-05-14T19:39:18.793Z,12.79
2019-05-14T19:41:45.160Z,12.76
2019-05-14T19:44:11.415Z,12.71
2019-05-14T19:46:38.623Z,12.66
2019-05-14T19:49:05.211Z,12.63
2019-05-14T19:51:31.334Z,12.64
2019-05-14T19:53:58.549Z,12.70
2019-05-14T19:56:24.816Z,12.42
2019-05-14T19:58:52.161Z,12.29
2019-05-14T20:01:19.369Z,12.17
2019-05-14T20:03:45.974Z,12.16
2019-05-14T20:06:12.321Z,12.08
2019-05-14T20:08:38.781Z,11.97
2019-05-14T20:11:05.316Z,11.78
2019-05-14T20:13:31.718Z,11.90
2019-05-14T20:15:59.076Z,11.80
2019-05-14T20:18:25.602Z,11.94
2019-05-14T20:20:51.916Z,11.88
2019-05-14T20:23:18.601Z,11.64
2019-05-14T20:25:45.128Z,11.58
2019-05-14T20:28:11.376Z,11.58
2019-05-14T20:30:38.597Z,11.43
2019-05-14T20:33:05.413Z,11.47
2019-05-14T20:35:35.040Z,11.41
2019-05-14T20:37:59.971Z,11.46
2019-05-14T20:40:28.369Z,11.30
2019-05-14T20:42:54.342Z,11.37
2019-05-14T20:45:20.833Z,11.29
2019-05-14T20:47:48.096Z,11.20
2019-05-14T20:50:15.663Z,11.20
2019-05-14T20:52:41.916Z,11.18
2019-05-14T20:55:09.545Z,11.25
2019-05-14T20:57:38.346Z,11.15
2019-05-14T21:00:07.575Z,11.23
2019-05-14T21:02:33.999Z,11.12
2019-05-14T21:05:04.291Z,11.03
2019-05-14T21:07:28.961Z,10.83
2019-05-14T21:09:55.451Z,10.77
2019-05-14T21:12:21.709Z,10.83
2019-05-14T21:14:49.116Z,10.84
2019-05-14T21:17:15.655Z,10.70
2019-05-14T21:19:41.895Z,10.64
2019-05-14T21:22:08.515Z,10.57
2019-05-14T21:24:35.065Z,10.56
2019-05-14T21:27:01.211Z,10.44
2019-05-14T21:29:30.542Z,10.42
2019-05-14T21:31:56.653Z,10.37
2019-05-14T21:34:22.763Z,10.36
2019-05-14T21:36:48.949Z,10.32
2019-05-14T21:39:16.269Z,10.30
2019-05-14T21:41:42.446Z,10.23
2019-05-14T21:44:10.534Z,10.17
2019-05-14T21:46:39.506Z,10.15
2019-05-14T21:49:07.655Z,10.07
2019-05-14T21:51:34.475Z,10.06
2019-05-14T21:54:00.752Z,10.07
2019-05-14T21:56:29.129Z,10.07
2019-05-14T21:58:55.403Z,10.02
2019-05-14T22:01:22.008Z,10.01
2019-05-14T22:03:48.634Z,10.05
2019-05-14T22:06:15.279Z,10.05
2019-05-14T22:08:43.553Z,9.99
2019-05-14T22:11:10.985Z,9.83
2019-05-14T22:13:39.480Z,9.78
2019-05-14T22:16:08.213Z,9.85
2019-05-14T22:18:34.314Z,9.83
2019-05-14T22:21:03.508Z,9.56
2019-05-14T22:23:29.719Z,9.56
2019-05-14T22:25:58.177Z,9.56
2019-05-14T22:28:24.458Z,9.53
2019-05-14T22:30:50.838Z,9.50
2019-05-14T22:33:18.943Z,9.51
2019-05-14T22:35:48.598Z,9.51
2019-05-14T22:38:14.907Z,9.43
2019-05-14T22:40:42.146Z,9.30
2019-05-14T22:43:09.623Z,9.30
2019-05-14T22:45:36.312Z,9.25
2019-05-14T22:48:04.692Z,9.25
2019-05-14T22:50:33.419Z,9.19
2019-05-14T22:53:00.304Z,9.09
2019-05-14T22:55:28.971Z,9.12
2019-05-14T22:57:55.077Z,9.06
2019-05-14T23:00:21.403Z,8.98
2019-05-14T23:02:48.743Z,8.98
2019-05-14T23:05:15.194Z,9.00
2019-05-14T23:07:41.304Z,9.02
2019-05-14T23:10:08.983Z,9.00
2019-05-14T23:12:35.570Z,9.04
2019-05-14T23:15:02.193Z,9.13
2019-05-14T23:17:28.597Z,9.09
2019-05-14T23:19:55.098Z,9.07
2019-05-14T23:22:21.254Z,8.94
2019-05-14T23:24:47.342Z,8.88
2019-05-14T23:27:13.672Z,8.86
2019-05-14T23:29:39.960Z,8.86
2019-05-14T23:32:08.177Z,8.82
2019-05-14T23:34:34.564Z,8.84
2019-05-14T23:37:00.765Z,8.74
2019-05-14T23:39:28.747Z,8.58
2019-05-14T23:41:55.396Z,8.57
2019-05-14T23:44:21.699Z,8.57
2019-05-14T23:46:49.251Z,8.52
2019-05-14T23:49:15.442Z,8.50
2019-05-14T23:51:41.853Z,8.45
2019-05-14T23:54:08.760Z,8.34
2019-05-14T23:56:38.426Z,8.41
2019-05-14T23:59:05.032Z,8.38
